KMWK

Mount Airy / Surry County Airport

Mount Airy, North Carolina, USA
METAR KMWK 200715Z AUTO 00000KT 2SM BR OVC007 10/08 A3043 RMK AO2 T00980080
Observed Flight Rules
Feb-20 @ 07:15 UTC (22 minutes ago) Instrument Flight Rules
Wind Visibility Clouds Conditions
Calm 2 miles
  • Overcast at 700' AGL
  • Mist
Temperatures Readings
Current 10°C / 50°F
Dewpoint 8°C / 46°F
Humidity 88%
Altimeter 30.43" Hg
Pressure 1030 hPa
Elevation 380
METAR KMWK 200715Z AUTO 00000KT 2SM BR OVC007 10/08 A3043 RMK AO2 T00980080
Observed Flight Rules
Feb-20 @ 07:15 UTC
(22 minutes ago)
IFR
Wind Visibility
Calm 2 miles
Clouds
  • Overcast at 700' AGL
Conditions
  • Mist
Temperature Dewpoint
10°C / 50°F 8°C / 46°F
Humidity Altimeter Pressure
88% 30.43" Hg 1030 hPa